Flight Track Log - Related Links

Times and Time Zones

All times are in EDT time to prevent confusion due to time zone crossing. See the SWA896 flight status page for this flight to view local times or setup timezone preferences in your user account.

Time Position Orientation Groundspeed Altitude Reporting Facility
EDT Latitude Longitude Course Direction KTS MPH feet Rate Location/Type
Fri 08:44:27 AM 42.9167 -78.7500 236° Southwest 169 194 2,100  Level Buffalo TRACON
Fri 08:45:09 AM 42.9000 -78.7833 236° Southwest 176 203 3,400 1,810 Climbing Buffalo TRACON
Fri 08:46:23 AM 42.8219 -78.8253 202° Southwest 237 273 5,600 2,356 Climbing Cleveland Center
Fri 08:47:24 AM 42.7578 -78.8556 199° South 270 311 8,700 2,529 Climbing Cleveland Center
Fri 08:48:24 AM 42.6792 -78.8886 197° South 270 311 10,700 1,412 Climbing Cleveland Center
Fri 08:49:23 AM 42.6067 -78.9244 200° South 297 342 11,500 1,966 Climbing Cleveland Center
Fri 08:50:23 AM 42.4886 -78.9811 199° South 351 404 14,600 2,550 Climbing Cleveland Center
Fri 08:51:23 AM 42.4192 -79.0700 223° Southwest 391 450 16,600 1,200 Climbing Cleveland Center
Fri 08:52:23 AM 42.4128 -79.2278 267° West 365 420 17,000 700 Climbing Cleveland Center
Fri 08:53:23 AM 42.4122 -79.3853 270° West 390 449 18,000 843 Climbing Cleveland Center
Fri 08:54:24 AM 42.4075 -79.5400 268° West 408 470 18,700 1,100 Climbing Cleveland Center
Fri 08:55:23 AM 42.4047 -79.7031 269° West 425 489 20,200 1,866 Climbing Cleveland Center
Fri 08:56:23 AM 42.4017 -79.8661 269° West 430 495 22,400 1,884 Climbing Cleveland Center
Fri 08:57:24 AM 42.3983 -80.0350 269° West 447 514 24,000 1,450 Climbing Cleveland Center
Fri 08:58:23 AM 42.3950 -80.2064 269° West 456 525 25,300 1,311 Climbing Cleveland Center
Fri 08:59:23 AM 42.3892 -80.3808 267° West 465 535 26,600 1,550 Climbing Cleveland Center
Fri 09:00:23 AM 42.3831 -80.5692 268° West 471 542 28,400 1,750 Climbing Cleveland Center
Fri 09:01:23 AM 42.3789 -80.7406 268° West 466 536 30,100 1,500 Climbing Cleveland Center
Fri 09:02:23 AM 42.3700 -80.9064 266° West 455 524 31,400 1,091 Climbing Cleveland Center
Fri 09:03:24 AM 42.3675 -81.0778 269° West 455 524 32,300 942 Climbing Cleveland Center
Fri 09:04:24 AM 42.3603 -81.2492 267° West 460 529 33,300 1,008 Climbing Cleveland Center
Fri 09:05:23 AM 42.3550 -81.4206 268° West 460 529 34,300 908 Climbing Cleveland Center
Fri 09:06:23 AM 42.3494 -81.5861 267° West 455 524 35,100 800 Climbing Cleveland Center
Fri 09:07:23 AM 42.3417 -81.7575 267° West 460 529 35,900 446 Climbing Cleveland Center
Fri 09:08:24 AM 42.3356 -81.9203 267° West 453 521 36,000 50 Climbing Cleveland Center
Fri 09:09:24 AM 42.3294 -82.0914 267° West 458 527 36,000  Level Cleveland Center
Fri 09:10:23 AM 42.3189 -82.2400 265° West 458 527 36,000  Level Cleveland Center
Fri 09:11:23 AM 42.3122 -82.4056 267° West 458 527 36,000  Level Cleveland Center
Fri 09:12:24 AM 42.3053 -82.5736 267° West 453 521 36,000  Level Cleveland Center
Fri 09:13:23 AM 42.2983 -82.7392 267° West 453 521 36,000  Level Cleveland Center
Fri 09:14:24 AM 42.2886 -82.9072 266° West 453 521 36,000  Level Cleveland Center
Fri 09:15:23 AM 42.2811 -83.0753 267° West 453 521 36,000  Level Cleveland Center
Fri 09:16:24 AM 42.2708 -83.2461 265° West 460 529 36,000  Level Cleveland Center
Fri 09:17:23 AM 42.2628 -83.4169 266° West 465 535 36,000  Level Cleveland Center
Fri 09:18:23 AM 42.2547 -83.5653 266° West 454 522 36,000  Level Cleveland Center
Fri 09:19:23 AM 42.2431 -83.7697 266° West 460 529 36,000  Level Cleveland Center
Fri 09:20:23 AM 42.2319 -83.9344 265° West 454 522 36,000  Level Cleveland Center
Fri 09:21:24 AM 42.2231 -84.0994 266° West 454 522 36,000  Level Cleveland Center
Fri 09:22:24 AM 42.2114 -84.2672 265° West 454 522 36,000  Level Cleveland Center
Fri 09:23:24 AM 42.2019 -84.4319 266° West 454 522 36,000  Level Cleveland Center
Fri 09:24:24 AM 42.1922 -84.5939 265° West 448 516 36,000  Level Cleveland Center
Fri 09:26:45 AM 42.1700 -84.9567 265° West 432 497 36,000  Level Chicago Center
Fri 09:27:46 AM 42.1586 -85.1150 265° West 427 491 36,000  Level Chicago Center
Fri 09:28:48 AM 42.1472 -85.2758 265° West 430 495 36,000  Level Chicago Center
Fri 09:29:50 AM 42.1367 -85.4383 265° West 435 501 36,000  Level Chicago Center
Fri 09:30:52 AM 42.1219 -85.6342 264° West 438 504 36,000  Level Chicago Center
Fri 09:31:53 AM 42.1089 -85.7989 264° West 441 507 36,000  Level Chicago Center
Fri 09:32:55 AM 42.0958 -85.9647 264° West 444 511 36,000  Level Chicago Center
Fri 09:33:57 AM 42.0819 -86.1392 264° West 439 505 36,000  Level Chicago Center
Fri 09:34:59 AM 42.0689 -86.3028 264° West 440 506 36,000  Level Chicago Center
Fri 09:36:01 AM 42.0558 -86.4661 264° West 441 507 36,000  Level Chicago Center
Fri 09:37:02 AM 42.0458 -86.6289 265° West 442 509 36,000  Level Chicago Center
Fri 09:38:05 AM 42.0364 -86.8028 266° West 440 506 36,000  Level Chicago Center
Fri 09:39:06 AM 42.0256 -86.9656 265° West 440 506 36,000  Level Chicago Center
Fri 09:40:08 AM 42.0142 -87.1283 265° West 442 509 36,000  Level Chicago Center
Fri 09:41:10 AM 42.0014 -87.2894 264° West 439 505 36,000  Level Chicago Center
Fri 09:42:12 AM 41.9867 -87.4819 264° West 435 501 36,000  Level Chicago Center
Fri 09:43:13 AM 41.9747 -87.6444 264° West 439 505 36,000  Level Chicago Center
Fri 09:44:15 AM 41.9628 -87.8061 264° West 439 505 36,000  Level Chicago Center
Fri 09:45:17 AM 41.9500 -87.9686 264° West 442 509 36,000  Level Chicago Center
Fri 09:46:19 AM 41.9372 -88.1286 264° West 437 503 36,000  Level Chicago Center
Fri 09:47:21 AM 41.9217 -88.3206 264° West 435 501 36,000  Level Chicago Center
Fri 09:48:23 AM 41.9094 -88.4814 264° West 438 504 36,000  Level Chicago Center
Fri 09:49:25 AM 41.8956 -88.6417 263° West 438 504 36,000  Level Chicago Center
Fri 09:50:26 AM 41.8817 -88.8025 263° West 438 504 36,000  Level Chicago Center
Fri 09:51:28 AM 41.8681 -88.9642 264° West 439 505 36,000  Level Chicago Center
Fri 09:52:30 AM 41.8519 -89.1578 264° West 438 504 36,000  Level Chicago Center
Fri 09:53:32 AM 41.8381 -89.3178 263° West 436 502 36,000  Level Chicago Center
Fri 09:54:34 AM 41.8242 -89.4761 263° West 431 496 36,000  Level Chicago Center
Fri 09:55:36 AM 41.8086 -89.6333 262° West 428 493 36,000  Level Chicago Center
Fri 09:56:37 AM 41.7953 -89.7956 264° West 425 489 36,000  Level Chicago Center
Fri 09:57:39 AM 41.7797 -89.9522 262° West 425 489 36,000  Level Chicago Center
Fri 09:58:41 AM 41.7650 -90.1092 263° West 426 490 36,000  Level Chicago Center
Fri 09:59:43 AM 41.7497 -90.2653 263° West 425 489 36,000  Level Chicago Center
Fri 10:00:45 AM 41.7306 -90.4583 262° West 432 497 36,000  Level Chicago Center
Fri 10:01:47 AM 41.7144 -90.6144 262° West 427 491 36,000  Level Chicago Center
Fri 10:02:48 AM 41.6997 -90.7636 263° West 432 497 36,000  Level Chicago Center
Fri 10:03:50 AM 41.6828 -90.9206 262° West 430 495 36,000  Level Chicago Center
Fri 10:04:52 AM 41.6636 -91.1106 262° West 432 497 36,000  Level Chicago Center
Fri 10:05:54 AM 41.6453 -91.2703 261° West 434 499 36,000  Level Chicago Center
Fri 10:06:56 AM 41.6286 -91.4314 262° West 438 504 36,000  Level Chicago Center
Fri 10:07:58 AM 41.6119 -91.5903 262° West 436 502 36,000  Level Chicago Center
Fri 10:09:00 AM 41.5939 -91.7517 262° West 438 504 36,000  Level Chicago Center
Fri 10:10:02 AM 41.5753 -91.9142 261° West 443 510 36,000  Level Chicago Center
Fri 10:11:04 AM 41.5531 -92.1081 261° West 443 510 36,000  Level Chicago Center
Fri 10:12:06 AM 41.5350 -92.2697 262° West 443 510 36,000  Level Chicago Center
Fri 10:13:08 AM 41.5156 -92.4322 261° West 445 512 36,000  Level Chicago Center
Fri 10:14:10 AM 41.4972 -92.5936 261° West 444 511 36,000  Level Chicago Center
Fri 10:15:00 AM 41.4800 -92.7372 261° West 443 510 36,000  Level Minneapolis Center
Fri 10:16:02 AM 41.4603 -92.8972 261° West 442 509 36,000  Level Minneapolis Center
Fri 10:17:03 AM 41.4403 -93.0561 261° West 440 506 36,000  Level Minneapolis Center
Fri 10:18:05 AM 41.4214 -93.2150 261° West 440 506 36,000  Level Minneapolis Center
Fri 10:19:06 AM 41.3969 -93.4069 260° West 441 507 36,000  Level Minneapolis Center
Fri 10:20:08 AM 41.3767 -93.5658 260° West 440 506 36,000  Level Minneapolis Center
Fri 10:21:09 AM 41.3569 -93.7233 261° West 438 504 36,000  Level Minneapolis Center
Fri 10:22:11 AM 41.3356 -93.8836 260° West 441 507 36,000  Level Minneapolis Center
Fri 10:23:12 AM 41.3158 -94.0425 261° West 441 507 36,000  Level Minneapolis Center
Fri 10:24:14 AM 41.2936 -94.2017 260° West 442 509 36,000  Level Minneapolis Center
Fri 10:25:27 AM 41.2703 -94.3783 260° West 440 506 36,000  Level Minneapolis Center
Fri 10:26:29 AM 41.2439 -94.5739 260° West 445 512 36,000  Level Minneapolis Center
Fri 10:27:31 AM 41.2217 -94.7364 260° West 446 513 36,000  Level Minneapolis Center
Fri 10:28:32 AM 41.1989 -94.8994 260° West 447 514 36,000  Level Minneapolis Center
Fri 10:29:34 AM 41.1711 -95.0961 259° West 450 518 36,000  Level Minneapolis Center
Fri 10:30:35 AM 41.1467 -95.2592 259° West 450 518 36,000  Level Minneapolis Center
Fri 10:31:37 AM 41.1236 -95.4222 259° West 448 516 36,000  Level Minneapolis Center
Fri 10:32:39 AM 41.0992 -95.5858 259° West 449 517 36,000  Level Minneapolis Center
Fri 10:33:40 AM 41.0747 -95.7483 259° West 447 514 36,000  Level Minneapolis Center
Fri 10:34:42 AM 41.0506 -95.9142 259° West 450 518 36,000  Level Minneapolis Center
Fri 10:35:43 AM 41.0258 -96.0794 259° West 453 521 36,000  Level Minneapolis Center
Fri 10:36:45 AM 41.0003 -96.2458 259° West 455 524 36,000  Level Minneapolis Center
Fri 10:37:47 AM 40.9747 -96.4125 259° West 458 527 36,000  Level Minneapolis Center
Fri 10:38:48 AM 40.9492 -96.5800 259° West 461 531 36,000  Level Minneapolis Center
Fri 10:39:50 AM 40.9225 -96.7461 258° West 462 532 36,000  Level Minneapolis Center
Fri 10:40:52 AM 40.8789 -96.9392 253° West 458 527 36,000  Level Minneapolis Center
Fri 10:41:53 AM 40.8464 -97.1006 255° West 456 525 36,000  Level Minneapolis Center
Fri 10:42:55 AM 40.8150 -97.2644 256° West 457 526 36,000  Level Minneapolis Center
Fri 10:43:57 AM 40.7864 -97.4114 256° West 459 528 36,000  Level Minneapolis Center
Fri 10:44:58 AM 40.7467 -97.6108 255° West 465 535 36,000  Level Minneapolis Center
Fri 10:46:00 AM 40.7128 -97.7778 255° West 468 539 36,000  Level Minneapolis Center
Fri 10:47:02 AM 40.6778 -97.9439 255° West 469 540 36,000  Level Minneapolis Center
Fri 10:48:03 AM 40.6436 -98.1103 255° West 468 539 36,000  Level Minneapolis Center
Fri 10:49:05 AM 40.6103 -98.2731 255° West 462 532 36,000  Level Minneapolis Center
Fri 10:50:19 AM 40.5764 -98.4361 255° West 460 529 36,000  Level Minneapolis Center
Fri 10:51:21 AM 40.5353 -98.6322 255° West 460 529 36,000  Level Minneapolis Center
Fri 10:52:22 AM 40.5019 -98.7944 255° West 459 528 36,000  Level Minneapolis Center
Fri 10:53:24 AM 40.4675 -98.9542 254° West 454 522 36,000  Level Minneapolis Center
Fri 10:54:26 AM 40.4325 -99.1158 254° West 457 526 36,000  Level Minneapolis Center
Fri 10:55:15 AM 40.4047 -99.2431 254° West 452 520 36,000  Level Denver Center
Fri 10:56:17 AM 40.3631 -99.4358 254° West 454 522 36,000  Level Denver Center
Fri 10:57:19 AM 40.3261 -99.5958 253° West 457 526 36,000  Level Denver Center
Fri 10:58:21 AM 40.2922 -99.7564 255° West 457 526 36,000  Level Denver Center
Fri 10:59:23 AM 40.2561 -99.9119 253° West 458 527 36,000  Level Denver Center
Fri 11:00:25 AM 40.2158 -100.0906 254° West 458 527 36,000  Level Denver Center
Fri 11:01:27 AM 40.1811 -100.2458 254° West 461 531 36,000  Level Denver Center
Fri 11:02:29 AM 40.1397 -100.4283 254° West 466 536 36,000  Level Denver Center
Fri 11:03:31 AM 40.1047 -100.5800 253° West 459 528 36,000  Level Denver Center
Fri 11:04:33 AM 40.0631 -100.7592 253° West 460 529 36,000  Level Denver Center
Fri 11:05:35 AM 40.0264 -100.9128 253° West 461 531 36,000  Level Denver Center
Fri 11:06:37 AM 39.9850 -101.0903 253° West 459 528 36,000  Level Denver Center
Fri 11:07:39 AM 39.9489 -101.2403 253° West 455 524 36,000  Level Denver Center
Fri 11:08:41 AM 39.9131 -101.3953 253° West 464 534 36,000  Level Denver Center
Fri 11:09:43 AM 39.8703 -101.5722 253° West 461 531 36,000  Level Denver Center
Fri 11:10:45 AM 39.8336 -101.7228 252° West 457 526 36,000  Level Denver Center
Fri 11:11:47 AM 39.7908 -101.8989 253° West 456 525 36,000  Level Denver Center
Fri 11:12:49 AM 39.7550 -102.0472 253° West 453 521 36,000  Level Denver Center
Fri 11:13:51 AM 39.7106 -102.2197 252° West 449 517 36,000  Level Denver Center
Fri 11:14:53 AM 39.6731 -102.3697 252° West 453 521 36,000  Level Denver Center
Fri 11:15:56 AM 39.6300 -102.5458 252° West 458 527 36,000  Level Denver Center
Fri 11:16:58 AM 39.5914 -102.6978 252° West 459 528 36,000  Level Denver Center
Fri 11:18:00 AM 39.5519 -102.8561 252° West 458 527 36,000  Level Denver Center
Fri 11:19:02 AM 39.5119 -103.0131 252° West 455 524 36,000  Level Denver Center
Fri 11:20:04 AM 39.4722 -103.1667 252° West 448 516 36,000  Level Denver Center
Fri 11:21:06 AM 39.4264 -103.3433 251° West 439 505 36,000  Level Denver Center
Fri 11:22:08 AM 39.3878 -103.4956 252° West 441 507 36,000  Level Denver Center
Fri 11:23:10 AM 39.3469 -103.6481 251° West 444 511 36,000  Level Denver Center
Fri 11:24:12 AM 39.3072 -103.7997 251° West 442 509 36,000  Level Denver Center
Fri 11:25:14 AM 39.2664 -103.9542 251° West 447 514 36,000  Level Denver Center
Fri 11:26:16 AM 39.2247 -104.1086 251° West 450 518 36,000  Level Denver Center
Fri 11:27:18 AM 39.1831 -104.2644 251° West 453 521 36,000  Level Denver Center
Fri 11:28:20 AM 39.1419 -104.4169 251° West 445 512 36,000  Level Denver Center
Fri 11:29:22 AM 39.1003 -104.5711 251° West 449 517 36,000  Level Denver Center
Fri 11:30:24 AM 39.0514 -104.7481 250° West 443 510 36,000  Level Denver Center
Fri 11:31:26 AM 39.0100 -104.8997 251° West 442 509 36,000  Level Denver Center
Fri 11:32:28 AM 38.9683 -105.0500 250° West 442 509 36,000  Level Denver Center
Fri 11:33:30 AM 38.9269 -105.2003 251° West 443 510 36,000  Level Denver Center
Fri 11:34:32 AM 38.8850 -105.3489 250° West 440 506 36,000  Level Denver Center
Fri 11:35:34 AM 38.8422 -105.4978 250° West 441 507 36,000  Level Denver Center
Fri 11:36:36 AM 38.8011 -105.6478 251° West 441 507 36,000  Level Denver Center
Fri 11:37:39 AM 38.7572 -105.7967 249° West 442 509 36,000  Level Denver Center
Fri 11:38:41 AM 38.7078 -105.9717 250° West 443 510 36,000  Level Denver Center
Fri 11:39:43 AM 38.6642 -106.1219 250° West 447 514 36,000  Level Denver Center
Fri 11:40:45 AM 38.6253 -106.2581 250° West 446 513 36,000  Level Denver Center
Fri 11:41:47 AM 38.5811 -106.4078 249° West 445 512 36,000  Level Denver Center
Fri 11:42:49 AM 38.5458 -106.5597 254° West 443 510 36,000  Level Denver Center
Fri 11:43:51 AM 38.5114 -106.7119 254° West 443 510 36,000  Level Denver Center
Fri 11:44:53 AM 38.4703 -106.8947 254° West 446 513 36,000  Level Denver Center
Fri 11:45:55 AM 38.4344 -107.0483 253° West 447 514 36,000  Level Denver Center
Fri 11:46:57 AM 38.3958 -107.2189 254° West 453 521 36,000  Level Denver Center
Fri 11:47:59 AM 38.3614 -107.3686 254° West 458 527 36,000  Level Denver Center
Fri 11:49:02 AM 38.3269 -107.5153 253° West 455 524 36,000  Level Denver Center
Fri 11:50:03 AM 38.2875 -107.6853 254° West 451 519 36,000  Level Denver Center
Fri 11:51:05 AM 38.2531 -107.8311 253° West 450 518 36,000  Level Denver Center
Fri 11:52:07 AM 38.2125 -108.0047 253° West 453 521 36,000  Level Denver Center
Fri 11:53:09 AM 38.1778 -108.1503 253° West 451 519 36,000  Level Denver Center
Fri 11:54:12 AM 38.1364 -108.3206 253° West 452 520 36,000  Level Denver Center
Fri 11:55:14 AM 38.1014 -108.4675 253° West 453 521 36,000  Level Denver Center
Fri 11:56:16 AM 38.0608 -108.6339 253° West 450 518 36,000  Level Denver Center
Fri 11:57:18 AM 38.0258 -108.7764 253° West 446 513 36,000  Level Denver Center
Fri 11:58:20 AM 37.9842 -108.9436 253° West 446 513 36,000  Level Denver Center
Fri 11:59:22 AM 37.9478 -109.0875 252° West 449 517 36,000  Level Denver Center
Fri 12:00:24 PM 37.9064 -109.2558 253° West 448 516 36,000  Level Denver Center
Fri 12:01:26 PM 37.8708 -109.3981 252° West 447 514 36,000 -290 Level Denver Center
Fri 12:02:28 PM 37.8275 -109.5669 252° West 451 519 35,400 -726 Descending Denver Center
Fri 12:03:30 PM 37.7911 -109.7103 252° West 450 518 34,500 -677 Descending Denver Center
Fri 12:04:32 PM 37.7486 -109.8789 252° West 452 520 34,000 -242 Descending Denver Center
Fri 12:05:34 PM 37.7117 -110.0225 252° West 451 519 34,000  Level Denver Center
Fri 12:06:36 PM 37.6672 -110.1911 252° West 453 521 34,000  Level Denver Center
Fri 12:07:38 PM 37.6300 -110.3356 252° West 454 522 34,000  Level Denver Center
Fri 12:08:40 PM 37.5858 -110.5039 252° West 453 521 34,000  Level Denver Center
Fri 12:09:42 PM 37.5447 -110.6583 251° West 453 521 34,000  Level Denver Center
Fri 12:10:44 PM 37.5050 -110.8094 252° West 455 524 34,000  Level Denver Center
Fri 12:11:46 PM 37.4653 -110.9597 252° West 453 521 34,000 -97 Level Denver Center
Fri 12:12:48 PM 37.4239 -111.1103 251° West 454 522 33,800 -581 Descending Denver Center
Fri 12:13:50 PM 37.3831 -111.2628 251° West 459 528 32,800 -871 Descending Denver Center
Fri 12:14:52 PM 37.3422 -111.4144 251° West 459 528 32,000 -384 Descending Denver Center
Fri 12:15:55 PM 37.2917 -111.5967 251° West 459 528 32,000  Level Denver Center
Fri 12:16:57 PM 37.2508 -111.7492 251° West 461 531 32,000  Level Denver Center
Fri 12:17:59 PM 37.2106 -111.8997 251° West 456 525 32,000  Level Denver Center
Fri 12:18:17 PM 37.1986 -111.9314 245° Southwest 460 529 32,000  Level Los Angeles Center
Fri 12:19:19 PM 37.1469 -112.1139 250° West 462 532 32,000  Level Los Angeles Center
Fri 12:20:21 PM 37.1047 -112.2656 251° West 460 529 32,000  Level Los Angeles Center
Fri 12:21:24 PM 37.0619 -112.4169 251° West 459 528 32,000  Level Los Angeles Center
Fri 12:22:26 PM 37.0186 -112.5683 250° West 459 528 32,000  Level Los Angeles Center
Fri 12:23:28 PM 36.9753 -112.7189 250° West 458 527 32,000  Level Los Angeles Center
Fri 12:24:30 PM 36.9328 -112.8703 251° West 459 528 32,000  Level Los Angeles Center
Fri 12:25:32 PM 36.8889 -113.0206 250° West 459 528 32,000  Level Los Angeles Center
Fri 12:26:34 PM 36.8361 -113.2008 250° West 460 529 32,000 -823 Level Los Angeles Center
Fri 12:27:36 PM 36.7917 -113.3517 250° West 462 532 30,300 -2,032 Descending Los Angeles Center
Fri 12:28:38 PM 36.7478 -113.5011 250° West 460 529 27,800 -2,371 Descending Los Angeles Center
Fri 12:29:40 PM 36.7056 -113.6456 250° West 448 516 25,400 -2,323 Descending Los Angeles Center
Fri 12:30:42 PM 36.6639 -113.7836 249° West 431 496 23,000 -2,208 Descending Los Angeles Center
Fri 12:31:45 PM 36.6256 -113.9150 250° West 413 475 20,800 -2,304 Descending Los Angeles Center
Fri 12:32:47 PM 36.5792 -114.0669 249° West 395 455 18,200 -2,323 Descending Los Angeles Center
Fri 12:33:49 PM 36.5314 -114.1811 243° Southwest 377 434 16,000 -2,032 Descending Los Angeles Center
Fri 12:34:51 PM 36.4839 -114.2847 240° Southwest 368 423 14,000 -1,846 Descending Los Angeles Center
Fri 12:35:46 PM 36.4358 -114.3961 242° Southwest 353 406 12,400 -1,357 Descending Los Angeles Center
Fri 12:36:46 PM 36.3797 -114.4742 228° Southwest 315 362 11,400 -1,276 Descending Los Angeles Center
Fri 12:37:53 PM 36.2867 -114.5031 194° South 302 348 9,700 -1,359 Descending Los Angeles Center
Fri 12:38:54 PM 36.2056 -114.5281 194° South 298 343 8,500 -836 Descending Los Angeles Center
Fri 12:39:55 PM 36.1528 -114.6019 229° Southwest 290 334 8,000 -277 Descending Los Angeles Center
Fri 12:41:04 PM 36.1017 -114.6800 231° Southwest 287 330 7,900 -148 Descending Los Angeles Center
Fri 12:41:57 PM 36.0733 -114.7511 244° Southwest 253 291 7,700 -556 Descending Los Angeles Center
Fri 12:42:52 PM 36.0744 -114.8253 271° West 240 276 6,900 -761 Descending Los Angeles Center
Fri 12:43:08 PM 36.0739 -114.8342 266° West 248 285 6,800 -1,200 Descending Los Angeles Center
Fri 12:43:52 PM 36.0739 -114.9108 270° West 242 278 5,700 -1,645 Descending Los Angeles Center
Fri 12:44:10 PM 36.0742 -114.9347 271° West 244 281 5,100 -1,500 Descending Los Angeles Center
Fri 12:45:00 PM 36.0728 -115.0044 269° West 223 257 4,000 -1,145 Descending Los Angeles Center
Fri 12:46:00 PM 36.0742 -115.0703 272° West 186 214 3,000 -882 Descending Los Angeles Center
Fri 12:47:16 PM 36.0747 -115.1308 271° West 176 203 2,000 -789 Descending Los Angeles Center
Fri 12:49:00 PM 36.0667 -115.1500 219° Southwest  Level FlightAware Approximate

Login

Don't have an account? Register now (free) for customized features, flight alerts, and more!